Aegean Viii — SXKO — position and weather

sailwx.info

Track history (hours):
 
Tides and Currents Weather Stations Pressure Air Temp Water Temp Dewpoint Dewpoint Depression Visibility Wind Speed Wind Dir Waves Ship Positions

Aegean Viii

Last reported at 2017-Jan-17 16:33 UTC. Time now 2017-Jan-17 17:14 UTC.
Position N 38°02' E 023°32'.

Length 75 m; draft 3.8 m.

Type: Tanker. MMSI: 240732000.

Date/timePositionNaut miles runAvg speedWind from/ knotsBaromVisibWave heightAir tempDewpointWater temp
2017-Jan-17 16:33N 38°02' E 023°32'4 4.2
2017-Jan-17 15:34N 37°58' E 023°33'2 2.1
2017-Jan-17 14:34N 37°57' E 023°35'0 0.0
2017-Jan-17 13:32N 37°57' E 023°35'0 0.0
2017-Jan-17 12:33N 37°57' E 023°35'0 0.0
2017-Jan-17 11:33N 37°57' E 023°35'3 2.8
2017-Jan-17 10:33N 37°55' E 023°33'0 0.0
2017-Jan-17 09:33N 37°55' E 023°33'0 0.0
2017-Jan-17 08:34N 37°55' E 023°33'1 1.0
2017-Jan-17 07:33N 37°55' E 023°34'4 4.2
2017-Jan-17 06:31N 37°59' E 023°33'3 3.5
2017-Jan-17 05:34N 38°02' E 023°32'0 0.0
2017-Jan-17 04:34N 38°02' E 023°32'0 0.0
2017-Jan-17 03:34N 38°02' E 023°32'0 0.0
2017-Jan-17 02:33N 38°02' E 023°32'0 0.0
2017-Jan-17 01:33N 38°02' E 023°32'0 0.0
2017-Jan-17 00:33N 38°02' E 023°32'0 0.0
2017-Jan-16 23:33N 38°02' E 023°32'0 0.0
2017-Jan-16 22:33N 38°02' E 023°32'3 2.9
2017-Jan-16 21:33N 38°02' E 023°36'0 0.0
2017-Jan-16 20:33N 38°02' E 023°36'0 0.0
2017-Jan-16 19:33N 38°02' E 023°36'0 0.0
2017-Jan-16 18:33N 38°02' E 023°36'0 0.0
2017-Jan-16 17:33N 38°02' E 023°36'0 0.0
2017-Jan-16 16:33N 38°02' E 023°36'0 0.0
2017-Jan-16 15:33N 38°02' E 023°36'0 0.0
2017-Jan-16 14:33N 38°02' E 023°36'1 0.7
2017-Jan-16 13:34N 38°01' E 023°35'0 0.0
2017-Jan-16 12:33N 38°01' E 023°35'0 0.0
2017-Jan-16 11:33N 38°01' E 023°35'1 0.7
2017-Jan-16 10:34N 38°02' E 023°35'0 0.0
2017-Jan-16 09:34N 38°02' E 023°35'3 2.6
2017-Jan-16 08:33N 38°02' E 023°32'0 0.0
2017-Jan-16 07:33N 38°02' E 023°32'0 0.0
2017-Jan-16 06:33N 38°02' E 023°32'0 0.0
2017-Jan-16 05:34N 38°02' E 023°32'0 0.0
2017-Jan-15 11:09N 38°02' E 023°32'0 0.0
2017-Jan-15 10:33N 38°02' E 023°32'6 6.1
2017-Jan-15 09:33N 37°57' E 023°35'3 3.1
2017-Jan-15 08:33N 37°54' E 023°33'0 0.0
2017-Jan-15 07:33N 37°54' E 023°33'0 0.0
2017-Jan-15 06:33N 37°54' E 023°33'2 1.8
2017-Jan-15 05:33N 37°56' E 023°34'7 6.7
2017-Jan-15 04:33N 38°02' E 023°32'0 0.2
2017-Jan-15 03:34N 38°02' E 023°32'0 0.0
2017-Jan-15 02:33N 38°02' E 023°32'0 0.0
2017-Jan-15 01:33N 38°02' E 023°32'0 0.0
2017-Jan-15 00:33N 38°02' E 023°32'0 0.0
2017-Jan-14 23:34N 38°02' E 023°32'0 0.0
2017-Jan-14 22:33N 38°02' E 023°32'0 0.0
2017-Jan-14 21:34N 38°02' E 023°32'0 0.0
2017-Jan-14 20:33N 38°02' E 023°32'1 1.0
2017-Jan-14 19:33N 38°02' E 023°31'0 0.0
2017-Jan-14 18:33N 38°02' E 023°31'1 1.5
2017-Jan-14 17:33N 38°02' E 023°33'2 2.5
2017-Jan-14 16:33N 38°02' E 023°36'0 0.0
2017-Jan-14 15:33N 38°02' E 023°36'0 0.0
2017-Jan-14 14:33N 38°02' E 023°36'0 0.4
2017-Jan-14 13:33N 38°02' E 023°35'2 1.9
2017-Jan-14 12:33N 38°00' E 023°33'3 3.5
2017-Jan-14 11:33N 37°57' E 023°36'0 0.0
2017-Jan-14 10:33N 37°57' E 023°36'0 0.0
2017-Jan-14 09:33N 37°57' E 023°36'0 0.0
2017-Jan-14 08:33N 37°57' E 023°36'1 0.6
2017-Jan-14 07:33N 37°57' E 023°35'6 5.9
2017-Jan-14 06:33N 38°02' E 023°32'0 0.0
2017-Jan-14 05:33N 38°02' E 023°32'0 0.0
2017-Jan-14 04:33N 38°02' E 023°32'0 0.0
2017-Jan-14 03:33N 38°02' E 023°32'0 0.0
2017-Jan-13 23:33N 38°02' E 023°32'0 0.0
2017-Jan-13 09:33N 38°02' E 023°32'0 0.0
2017-Jan-13 08:33N 38°02' E 023°32'3 2.5
2017-Jan-13 07:33N 38°02' E 023°35'0 0.2
2017-Jan-13 06:33N 38°02' E 023°35'0 0.4
2017-Jan-13 05:33N 38°02' E 023°35'0 0.1
2017-Jan-13 04:33N 38°02' E 023°35'1 0.5
2017-Jan-13 03:33N 38°02' E 023°36'0 0.0
2017-Jan-13 02:34N 38°02' E 023°36'0 0.0
2017-Jan-13 01:33N 38°02' E 023°36'0 0.0
2017-Jan-13 00:33N 38°02' E 023°36'0 0.0
2017-Jan-12 23:33N 38°02' E 023°36'0 0.0
2017-Jan-12 22:33N 38°02' E 023°36'0 0.0
2017-Jan-12 21:33N 38°02' E 023°36'1 0.6
2017-Jan-12 20:33N 38°02' E 023°35'2 2.4
2017-Jan-12 19:33N 38°02' E 023°32'5 5.4
2017-Jan-12 18:33N 37°57' E 023°34'2 1.5
2017-Jan-12 17:32N 37°58' E 023°36'0 0.0
2017-Jan-12 16:33N 37°58' E 023°36'4 3.6
2017-Jan-12 15:33N 37°55' E 023°33'0 0.0
2017-Jan-12 14:33N 37°55' E 023°33'2 1.6
2017-Jan-12 13:33N 37°53' E 023°32'1 1.5
2017-Jan-12 12:33N 37°52' E 023°32'1 0.6
2017-Jan-12 11:33N 37°51' E 023°32'0 0.0
2017-Jan-12 10:33N 37°51' E 023°32'6 5.9
2017-Jan-12 09:33N 37°57' E 023°35'6 5.5
2017-Jan-12 08:33N 38°02' E 023°32'0 0.1
2017-Jan-12 07:33N 38°02' E 023°32'0 0.4
2017-Jan-12 06:33N 38°02' E 023°32'0 0.0
2017-Jan-12 05:34N 38°02' E 023°32'0 0.0
2017-Jan-11 12:32N 38°02' E 023°32'0 0.2
2017-Jan-11 11:34N 38°02' E 023°32'3 2.9
2017-Jan-11 10:34N 38°02' E 023°36'0 0.0
2017-Jan-11 09:34N 38°02' E 023°36'0 0.0
2017-Jan-11 08:33N 38°02' E 023°36'1 1.1
2017-Jan-11 07:33N 38°02' E 023°34'2 1.9
2017-Jan-11 06:33N 38°02' E 023°32'0 0.0
2017-Jan-11 05:34N 38°02' E 023°32'0 0.0
2017-Jan-10 13:20N 38°02' E 023°32'0 0.0
2017-Jan-10 12:33N 38°02' E 023°32'0 0.0
2017-Jan-10 11:33N 38°02' E 023°32'0 0.0
2017-Jan-10 10:33N 38°02' E 023°32'0 0.0
2017-Jan-10 09:33N 38°02' E 023°32'0 0.0
2017-Jan-10 08:33N 38°02' E 023°32'0 0.0
2017-Jan-09 18:34N 38°02' E 023°32'1 1.0
2017-Jan-09 17:33N 38°02' E 023°31'0 0.0
2017-Jan-09 16:33N 38°02' E 023°31'0 0.0
2017-Jan-09 15:33N 38°02' E 023°31'1 0.5
2017-Jan-09 14:33N 38°02' E 023°31'0 0.2
2017-Jan-09 13:33N 38°02' E 023°32'0 0.0
2017-Jan-09 12:33N 38°02' E 023°32'0 0.0
2017-Jan-09 11:34N 38°02' E 023°32'0 0.0
2017-Jan-09 10:34N 38°02' E 023°32'0 0.0
2017-Jan-09 09:34N 38°02' E 023°32'0 0.5
2017-Jan-09 08:34N 38°02' E 023°32'0 0.0
2017-Jan-09 07:34N 38°02' E 023°32'0 0.0
2017-Jan-09 06:33N 38°02' E 023°32'0 0.0
2017-Jan-09 05:34N 38°02' E 023°32'0 0.0
2017-Jan-08 18:33N 38°02' E 023°32'6 6.3
2017-Jan-08 17:34N 37°58' E 023°26'6 6.2
2017-Jan-08 16:33N 37°52' E 023°27'5 5.3
2017-Jan-08 15:34N 37°54' E 023°33'3 2.6
2017-Jan-08 14:33N 37°56' E 023°35'2 1.8
2017-Jan-08 13:33N 37°58' E 023°36'0 0.1
2017-Jan-08 12:33N 37°57' E 023°36'2 1.6
2017-Jan-08 11:33N 37°57' E 023°34'0 0.0
2017-Jan-08 10:33N 37°57' E 023°34'1 0.9
2017-Jan-08 09:33N 37°57' E 023°33'5 4.5
2017-Jan-08 08:33N 38°02' E 023°32'0 0.0
2017-Jan-08 07:33N 38°02' E 023°32'0 0.5
2017-Jan-08 06:33N 38°02' E 023°32'0 0.0
2017-Jan-08 05:33N 38°02' E 023°32'0 0.0
2017-Jan-08 04:33N 38°02' E 023°32'0 0.0
2017-Jan-08 03:33N 38°02' E 023°32'0 0.0
2017-Jan-08 02:34N 38°02' E 023°32'0 0.0
2017-Jan-08 01:33N 38°02' E 023°32'  
Track history (hours):
 
Tides and Currents Weather Stations Pressure Air Temp Water Temp Dewpoint Dewpoint Depression Visibility Wind Speed Wind Dir Waves Ship Positions

Aegean Viii

Last reported at 2017-Jan-17 16:33 UTC. Time now 2017-Jan-17 17:14 UTC.
Position N 38°02' E 023°32'.

Length 75 m; draft 3.8 m.

Type: Tanker. MMSI: 240732000.

Date/timePositionNaut miles runAvg speedWind from/ knotsBaromVisibWave heightAir tempDewpointWater temp
2017-Jan-17 16:33N 38°02' E 023°32'4 4.2
2017-Jan-17 15:34N 37°58' E 023°33'2 2.1
2017-Jan-17 14:34N 37°57' E 023°35'0 0.0
2017-Jan-17 13:32N 37°57' E 023°35'0 0.0
2017-Jan-17 12:33N 37°57' E 023°35'0 0.0
2017-Jan-17 11:33N 37°57' E 023°35'3 2.8
2017-Jan-17 10:33N 37°55' E 023°33'0 0.0
2017-Jan-17 09:33N 37°55' E 023°33'0 0.0
2017-Jan-17 08:34N 37°55' E 023°33'1 1.0
2017-Jan-17 07:33N 37°55' E 023°34'4 4.2
2017-Jan-17 06:31N 37°59' E 023°33'3 3.5
2017-Jan-17 05:34N 38°02' E 023°32'0 0.0
2017-Jan-17 04:34N 38°02' E 023°32'0 0.0
2017-Jan-17 03:34N 38°02' E 023°32'0 0.0
2017-Jan-17 02:33N 38°02' E 023°32'0 0.0
2017-Jan-17 01:33N 38°02' E 023°32'0 0.0
2017-Jan-17 00:33N 38°02' E 023°32'0 0.0
2017-Jan-16 23:33N 38°02' E 023°32'0 0.0
2017-Jan-16 22:33N 38°02' E 023°32'3 2.9
2017-Jan-16 21:33N 38°02' E 023°36'0 0.0
2017-Jan-16 20:33N 38°02' E 023°36'0 0.0
2017-Jan-16 19:33N 38°02' E 023°36'0 0.0
2017-Jan-16 18:33N 38°02' E 023°36'0 0.0
2017-Jan-16 17:33N 38°02' E 023°36'0 0.0
2017-Jan-16 16:33N 38°02' E 023°36'0 0.0
2017-Jan-16 15:33N 38°02' E 023°36'0 0.0
2017-Jan-16 14:33N 38°02' E 023°36'1 0.7
2017-Jan-16 13:34N 38°01' E 023°35'0 0.0
2017-Jan-16 12:33N 38°01' E 023°35'0 0.0
2017-Jan-16 11:33N 38°01' E 023°35'1 0.7
2017-Jan-16 10:34N 38°02' E 023°35'0 0.0
2017-Jan-16 09:34N 38°02' E 023°35'3 2.6
2017-Jan-16 08:33N 38°02' E 023°32'0 0.0
2017-Jan-16 07:33N 38°02' E 023°32'0 0.0
2017-Jan-16 06:33N 38°02' E 023°32'0 0.0
2017-Jan-16 05:34N 38°02' E 023°32'0 0.0
2017-Jan-15 11:09N 38°02' E 023°32'0 0.0
2017-Jan-15 10:33N 38°02' E 023°32'6 6.1
2017-Jan-15 09:33N 37°57' E 023°35'3 3.1
2017-Jan-15 08:33N 37°54' E 023°33'0 0.0
2017-Jan-15 07:33N 37°54' E 023°33'0 0.0
2017-Jan-15 06:33N 37°54' E 023°33'2 1.8
2017-Jan-15 05:33N 37°56' E 023°34'7 6.7
2017-Jan-15 04:33N 38°02' E 023°32'0 0.2
2017-Jan-15 03:34N 38°02' E 023°32'0 0.0
2017-Jan-15 02:33N 38°02' E 023°32'0 0.0
2017-Jan-15 01:33N 38°02' E 023°32'0 0.0
2017-Jan-15 00:33N 38°02' E 023°32'0 0.0
2017-Jan-14 23:34N 38°02' E 023°32'0 0.0
2017-Jan-14 22:33N 38°02' E 023°32'0 0.0
2017-Jan-14 21:34N 38°02' E 023°32'0 0.0
2017-Jan-14 20:33N 38°02' E 023°32'1 1.0
2017-Jan-14 19:33N 38°02' E 023°31'0 0.0
2017-Jan-14 18:33N 38°02' E 023°31'1 1.5
2017-Jan-14 17:33N 38°02' E 023°33'2 2.5
2017-Jan-14 16:33N 38°02' E 023°36'0 0.0
2017-Jan-14 15:33N 38°02' E 023°36'0 0.0
2017-Jan-14 14:33N 38°02' E 023°36'0 0.4
2017-Jan-14 13:33N 38°02' E 023°35'2 1.9
2017-Jan-14 12:33N 38°00' E 023°33'3 3.5
2017-Jan-14 11:33N 37°57' E 023°36'0 0.0
2017-Jan-14 10:33N 37°57' E 023°36'0 0.0
2017-Jan-14 09:33N 37°57' E 023°36'0 0.0
2017-Jan-14 08:33N 37°57' E 023°36'1 0.6
2017-Jan-14 07:33N 37°57' E 023°35'6 5.9
2017-Jan-14 06:33N 38°02' E 023°32'0 0.0
2017-Jan-14 05:33N 38°02' E 023°32'0 0.0
2017-Jan-14 04:33N 38°02' E 023°32'0 0.0
2017-Jan-14 03:33N 38°02' E 023°32'0 0.0
2017-Jan-13 23:33N 38°02' E 023°32'0 0.0
2017-Jan-13 09:33N 38°02' E 023°32'0 0.0
2017-Jan-13 08:33N 38°02' E 023°32'3 2.5
2017-Jan-13 07:33N 38°02' E 023°35'0 0.2
2017-Jan-13 06:33N 38°02' E 023°35'0 0.4
2017-Jan-13 05:33N 38°02' E 023°35'0 0.1
2017-Jan-13 04:33N 38°02' E 023°35'1 0.5
2017-Jan-13 03:33N 38°02' E 023°36'0 0.0
2017-Jan-13 02:34N 38°02' E 023°36'0 0.0
2017-Jan-13 01:33N 38°02' E 023°36'0 0.0
2017-Jan-13 00:33N 38°02' E 023°36'0 0.0
2017-Jan-12 23:33N 38°02' E 023°36'0 0.0
2017-Jan-12 22:33N 38°02' E 023°36'0 0.0
2017-Jan-12 21:33N 38°02' E 023°36'1 0.6
2017-Jan-12 20:33N 38°02' E 023°35'2 2.4
2017-Jan-12 19:33N 38°02' E 023°32'5 5.4
2017-Jan-12 18:33N 37°57' E 023°34'2 1.5
2017-Jan-12 17:32N 37°58' E 023°36'0 0.0
2017-Jan-12 16:33N 37°58' E 023°36'4 3.6
2017-Jan-12 15:33N 37°55' E 023°33'0 0.0
2017-Jan-12 14:33N 37°55' E 023°33'2 1.6
2017-Jan-12 13:33N 37°53' E 023°32'1 1.5
2017-Jan-12 12:33N 37°52' E 023°32'1 0.6
2017-Jan-12 11:33N 37°51' E 023°32'0 0.0
2017-Jan-12 10:33N 37°51' E 023°32'6 5.9
2017-Jan-12 09:33N 37°57' E 023°35'6 5.5
2017-Jan-12 08:33N 38°02' E 023°32'0 0.1
2017-Jan-12 07:33N 38°02' E 023°32'0 0.4
2017-Jan-12 06:33N 38°02' E 023°32'0 0.0
2017-Jan-12 05:34N 38°02' E 023°32'0 0.0
2017-Jan-11 12:32N 38°02' E 023°32'0 0.2
2017-Jan-11 11:34N 38°02' E 023°32'3 2.9
2017-Jan-11 10:34N 38°02' E 023°36'0 0.0
2017-Jan-11 09:34N 38°02' E 023°36'0 0.0
2017-Jan-11 08:33N 38°02' E 023°36'1 1.1
2017-Jan-11 07:33N 38°02' E 023°34'2 1.9
2017-Jan-11 06:33N 38°02' E 023°32'0 0.0
2017-Jan-11 05:34N 38°02' E 023°32'0 0.0
2017-Jan-10 13:20N 38°02' E 023°32'0 0.0
2017-Jan-10 12:33N 38°02' E 023°32'0 0.0
2017-Jan-10 11:33N 38°02' E 023°32'0 0.0
2017-Jan-10 10:33N 38°02' E 023°32'0 0.0
2017-Jan-10 09:33N 38°02' E 023°32'0 0.0
2017-Jan-10 08:33N 38°02' E 023°32'0 0.0
2017-Jan-09 18:34N 38°02' E 023°32'1 1.0
2017-Jan-09 17:33N 38°02' E 023°31'0 0.0
2017-Jan-09 16:33N 38°02' E 023°31'0 0.0
2017-Jan-09 15:33N 38°02' E 023°31'1 0.5
2017-Jan-09 14:33N 38°02' E 023°31'0 0.2
2017-Jan-09 13:33N 38°02' E 023°32'0 0.0
2017-Jan-09 12:33N 38°02' E 023°32'0 0.0
2017-Jan-09 11:34N 38°02' E 023°32'0 0.0
2017-Jan-09 10:34N 38°02' E 023°32'0 0.0
2017-Jan-09 09:34N 38°02' E 023°32'0 0.5
2017-Jan-09 08:34N 38°02' E 023°32'0 0.0
2017-Jan-09 07:34N 38°02' E 023°32'0 0.0
2017-Jan-09 06:33N 38°02' E 023°32'0 0.0
2017-Jan-09 05:34N 38°02' E 023°32'0 0.0
2017-Jan-08 18:33N 38°02' E 023°32'6 6.3
2017-Jan-08 17:34N 37°58' E 023°26'6 6.2
2017-Jan-08 16:33N 37°52' E 023°27'5 5.3
2017-Jan-08 15:34N 37°54' E 023°33'3 2.6
2017-Jan-08 14:33N 37°56' E 023°35'2 1.8
2017-Jan-08 13:33N 37°58' E 023°36'0 0.1
2017-Jan-08 12:33N 37°57' E 023°36'2 1.6
2017-Jan-08 11:33N 37°57' E 023°34'0 0.0
2017-Jan-08 10:33N 37°57' E 023°34'1 0.9
2017-Jan-08 09:33N 37°57' E 023°33'5 4.5
2017-Jan-08 08:33N 38°02' E 023°32'0 0.0
2017-Jan-08 07:33N 38°02' E 023°32'0 0.5
2017-Jan-08 06:33N 38°02' E 023°32'0 0.0
2017-Jan-08 05:33N 38°02' E 023°32'0 0.0
2017-Jan-08 04:33N 38°02' E 023°32'0 0.0
2017-Jan-08 03:33N 38°02' E 023°32'0 0.0
2017-Jan-08 02:34N 38°02' E 023°32'0 0.0
2017-Jan-08 01:33N 38°02' E 023°32'  

Dump ship's entire track history